Aérodrome :
LOGIN :

S'inscrire | Disclaimer

   EN    FR    IT 

 










Légende :    VFR   VFR Marginal   IFR   IFR Intensif   IFR Très Intensif
Visi : 
Plafond : 
>= 8 km
>= 3000ft
5 à 8 km
1000 à 3000 ft
1500m à 5 km
500 à 1000 ft
800 à 1500m
200 à 500 ft
< 800m
< 200 ft
Symboles :   Orages  Brouillard  Fortes neiges  Fortes précipitations  Vent > 20 kt
SIGMETs :   Divers  Orages  Givrage  Turbulence  Onde Orograph.  Cendres Volcan.







- Altitude de l'aérodrome : 102 ft
- Code IATA : EXT
- Voir les cartes d'approche


EGTE - Exeter

DERNIER METAR :
  • 181820Z 14005KT 9999 SCT020 07/06 Q1001 RERA

METARs EXPIRÉS :
  • 181750Z 00000KT 9999 FEW035 07/06 Q1001 RERA
  • 181720Z VRB03KT 9999 FEW038 07/06 Q1000 RERA
  • 181650Z VRB03KT 9000 -RA BKN038 07/07 Q1000 RERA
  • 181620Z 33004KT 9000 -RA BKN032 08/07 Q1000 RERA
  • 181550Z 30008KT 260V320 7000 RA BKN015 07/07 Q1000

TAF TAF EGTE
Valide du 18 à 18h jusqu'au 19 à 03h UTC


181700Z 1818/1903 20008KT 9999 SCT020
TEMPO 1818/1903 7000 SHRA
Pas de NOTAMs connus pour ce terrain.
2 SIGMETs publiés pour la FIR London (EGTT) :
 
Onde orographique forte
EGTT SIGMET 09 VALID 181900/182300 EGRR
EGTT LONDON FIR SEV MTW FCST WI N5220 W00530 - N5500 W00530 - N5500 W00015 - N5024 W00255 - N4959 W00548 - N5220 W00530 FL030/250 STNR WKN=
Onde orographique forte
EGTT SIGMET 08 VALID 181500/181900 EGRR
EGTT LONDON FIR SEV MTW FCST WI N5220 W00530 - N5500 W00530 - N5500 W00015 - N5024 W00255 - N4959 W00548 - N5220 W00530 FL030/250 STNR WKN=



MET'MAP, la Météo Aéronautique d'un coup d'oeil ! - Copyright ORBIFLY Décembre 2007 - Disclaimer

ORBIFLY MET'MAP TEAM :

Programmation & Développement : Alexandra Zaïnal
Conception & Développement : Baudouin d'Aumeries
Co-Programmation & Développement : Marc-Olivier Méhu
Soutien technique & logistique : Manuel Goepfert

Contact : metmap@orbifly.com




SOURCES & CREDITS :

   NOAA